sensor_id;sensor_type;location;lat;lon;timestamp;pressure;altitude;pressure_sealevel;temperature
71897;BMP280;59767;51.344;12.362;2022-12-07T00:01:24;159524.00;;;3.53
71897;BMP280;59767;51.344;12.362;2022-12-07T00:04:28;159542.22;;;3.60
71897;BMP280;59767;51.344;12.362;2022-12-07T00:07:32;159537.03;;;3.58
71897;BMP280;59767;51.344;12.362;2022-12-07T00:10:36;159542.22;;;3.60
71897;BMP280;59767;51.344;12.362;2022-12-07T00:13:40;159539.63;;;3.59
71897;BMP280;59767;51.344;12.362;2022-12-07T00:16:45;159495.34;;;3.41
71897;BMP280;59767;51.344;12.362;2022-12-07T00:19:49;159500.53;;;3.43
71897;BMP280;59767;51.344;12.362;2022-12-07T00:22:53;159479.66;;;3.35
71897;BMP280;59767;51.344;12.362;2022-12-07T00:26:04;159475.72;;;3.34
71897;BMP280;59767;51.344;12.362;2022-12-07T00:29:21;159470.56;;;3.32
71897;BMP280;59767;51.344;12.362;2022-12-07T00:32:26;159471.81;;;3.32
71897;BMP280;59767;51.344;12.362;2022-12-07T00:35:30;159457.50;;;3.27
71897;BMP280;59767;51.344;12.362;2022-12-07T00:38:36;159464.00;;;3.29
71897;BMP280;59767;51.344;12.362;2022-12-07T00:41:40;159437.94;;;3.19
71897;BMP280;59767;51.344;12.362;2022-12-07T00:44:44;159417.13;;;3.11
71897;BMP280;59767;51.344;12.362;2022-12-07T00:47:49;159397.53;;;3.04
71897;BMP280;59767;51.344;12.362;2022-12-07T00:50:52;159371.50;;;2.94
71897;BMP280;59767;51.344;12.362;2022-12-07T00:53:56;159338.94;;;2.81
71897;BMP280;59767;51.344;12.362;2022-12-07T00:57:00;159314.16;;;2.72
71897;BMP280;59767;51.344;12.362;2022-12-07T01:00:05;159284.22;;;2.60
71897;BMP280;59767;51.344;12.362;2022-12-07T01:03:12;159268.59;;;2.54
71897;BMP280;59767;51.344;12.362;2022-12-07T01:06:18;159260.72;;;2.51
71897;BMP280;59767;51.344;12.362;2022-12-07T01:09:22;159263.38;;;2.52
71897;BMP280;59767;51.344;12.362;2022-12-07T01:12:26;159264.69;;;2.53
71897;BMP280;59767;51.344;12.362;2022-12-07T01:15:31;159255.53;;;2.49
71897;BMP280;59767;51.344;12.362;2022-12-07T01:18:35;159245.09;;;2.45
71897;BMP280;59767;51.344;12.362;2022-12-07T01:21:40;159247.72;;;2.46
71897;BMP280;59767;51.344;12.362;2022-12-07T01:24:44;159213.81;;;2.33
71897;BMP280;59767;51.344;12.362;2022-12-07T01:27:50;159208.59;;;2.31
71897;BMP280;59767;51.344;12.362;2022-12-07T01:31:02;159194.34;;;2.26
71897;BMP280;59767;51.344;12.362;2022-12-07T01:34:08;159212.50;;;2.33
71897;BMP280;59767;51.344;12.362;2022-12-07T01:37:12;159191.72;;;2.25
71897;BMP280;59767;51.344;12.362;2022-12-07T01:40:16;159178.66;;;2.20
71897;BMP280;59767;51.344;12.362;2022-12-07T01:43:20;159172.16;;;2.17
71897;BMP280;59767;51.344;12.362;2022-12-07T01:46:24;159179.97;;;2.20
71897;BMP280;59767;51.344;12.362;2022-12-07T01:49:42;159173.50;;;2.18
71897;BMP280;59767;51.344;12.362;2022-12-07T01:52:49;159169.56;;;2.16
71897;BMP280;59767;51.344;12.362;2022-12-07T01:55:55;159153.91;;;2.10
71897;BMP280;59767;51.344;12.362;2022-12-07T01:59:01;159153.91;;;2.10
71897;BMP280;59767;51.344;12.362;2022-12-07T02:02:10;159140.88;;;2.05
71897;BMP280;59767;51.344;12.362;2022-12-07T02:05:17;159133.06;;;2.02
71897;BMP280;59767;51.344;12.362;2022-12-07T02:08:21;159134.38;;;2.03
71897;BMP280;59767;51.344;12.362;2022-12-07T02:11:26;159139.59;;;2.05
71897;BMP280;59767;51.344;12.362;2022-12-07T02:14:30;159148.72;;;2.08
71897;BMP280;59767;51.344;12.362;2022-12-07T02:17:47;159140.88;;;2.05
71897;BMP280;59767;51.344;12.362;2022-12-07T02:24:35;159112.19;;;1.94
71897;BMP280;59767;51.344;12.362;2022-12-07T02:27:50;159099.22;;;1.89
71897;BMP280;59767;51.344;12.362;2022-12-07T02:30:59;159091.34;;;1.86
71897;BMP280;59767;51.344;12.362;2022-12-07T02:34:15;159088.75;;;1.85
71897;BMP280;59767;51.344;12.362;2022-12-07T02:40:55;159099.22;;;1.89
71897;BMP280;59767;51.344;12.362;2022-12-07T02:44:07;159086.22;;;1.84
71897;BMP280;59767;51.344;12.362;2022-12-07T02:47:14;159086.22;;;1.84
71897;BMP280;59767;51.344;12.362;2022-12-07T02:50:21;159084.91;;;1.84
71897;BMP280;59767;51.344;12.362;2022-12-07T02:53:35;159066.66;;;1.77
71897;BMP280;59767;51.344;12.362;2022-12-07T03:00:07;159057.56;;;1.73
71897;BMP280;59767;51.344;12.362;2022-12-07T03:03:14;159065.38;;;1.76
71897;BMP280;59767;51.344;12.362;2022-12-07T03:06:32;159067.97;;;1.77
71897;BMP280;59767;51.344;12.362;2022-12-07T03:09:51;159077.09;;;1.81
71897;BMP280;59767;51.344;12.362;2022-12-07T03:16:19;159049.75;;;1.70
71897;BMP280;59767;51.344;12.362;2022-12-07T03:19:26;159067.97;;;1.77
71897;BMP280;59767;51.344;12.362;2022-12-07T03:22:31;159069.28;;;1.78
71897;BMP280;59767;51.344;12.362;2022-12-07T03:25:47;159087.44;;;1.85
71897;BMP280;59767;51.344;12.362;2022-12-07T03:28:55;159108.28;;;1.93
71897;BMP280;59767;51.344;12.362;2022-12-07T03:32:08;159123.97;;;1.99
71897;BMP280;59767;51.344;12.362;2022-12-07T03:35:27;159125.25;;;1.99
71897;BMP280;59767;51.344;12.362;2022-12-07T03:38:50;159135.69;;;2.03
71897;BMP280;59767;51.344;12.362;2022-12-07T03:41:59;159150.00;;;2.09
71897;BMP280;59767;51.344;12.362;2022-12-07T03:45:04;159153.91;;;2.10
71897;BMP280;59767;51.344;12.362;2022-12-07T03:48:19;159161.72;;;2.13
71897;BMP280;59767;51.344;12.362;2022-12-07T03:51:39;159172.16;;;2.17
71897;BMP280;59767;51.344;12.362;2022-12-07T03:55:02;159185.22;;;2.22
71897;BMP280;59767;51.344;12.362;2022-12-07T03:58:11;159194.34;;;2.26
71897;BMP280;59767;51.344;12.362;2022-12-07T04:01:17;159208.59;;;2.31
71897;BMP280;59767;51.344;12.362;2022-12-07T04:04:25;159203.38;;;2.29
71897;BMP280;59767;51.344;12.362;2022-12-07T04:07:29;159222.97;;;2.37
71897;BMP280;59767;51.344;12.362;2022-12-07T04:10:34;159242.50;;;2.44
71897;BMP280;59767;51.344;12.362;2022-12-07T04:13:38;159215.16;;;2.34
71897;BMP280;59767;51.344;12.362;2022-12-07T04:17:01;159229.47;;;2.39
71897;BMP280;59767;51.344;12.362;2022-12-07T04:20:05;159228.13;;;2.39
71897;BMP280;59767;51.344;12.362;2022-12-07T04:23:10;159229.47;;;2.39
71897;BMP280;59767;51.344;12.362;2022-12-07T04:26:14;159234.69;;;2.41
71897;BMP280;59767;51.344;12.362;2022-12-07T04:29:19;159249.00;;;2.47
71897;BMP280;59767;51.344;12.362;2022-12-07T04:32:23;159267.28;;;2.54
71897;BMP280;59767;51.344;12.362;2022-12-07T04:35:27;159262.03;;;2.52
71897;BMP280;59767;51.344;12.362;2022-12-07T04:38:32;159280.31;;;2.59
71897;BMP280;59767;51.344;12.362;2022-12-07T04:41:36;159288.06;;;2.62
71897;BMP280;59767;51.344;12.362;2022-12-07T04:44:40;159273.78;;;2.56
71897;BMP280;59767;51.344;12.362;2022-12-07T04:47:44;159281.59;;;2.59
71897;BMP280;59767;51.344;12.362;2022-12-07T04:50:48;159284.22;;;2.60
71897;BMP280;59767;51.344;12.362;2022-12-07T04:53:55;159302.41;;;2.67
71897;BMP280;59767;51.344;12.362;2022-12-07T04:57:00;159298.47;;;2.66
71897;BMP280;59767;51.344;12.362;2022-12-07T05:00:06;159310.22;;;2.70
71897;BMP280;59767;51.344;12.362;2022-12-07T05:03:10;159302.41;;;2.67
71897;BMP280;59767;51.344;12.362;2022-12-07T05:06:14;159315.44;;;2.72
71897;BMP280;59767;51.344;12.362;2022-12-07T05:09:18;159315.44;;;2.72
71897;BMP280;59767;51.344;12.362;2022-12-07T05:12:22;159354.59;;;2.87
71897;BMP280;59767;51.344;12.362;2022-12-07T05:15:26;159337.63;;;2.81
71897;BMP280;59767;51.344;12.362;2022-12-07T05:18:31;159341.53;;;2.82
71897;BMP280;59767;51.344;12.362;2022-12-07T05:21:36;159351.94;;;2.86
71897;BMP280;59767;51.344;12.362;2022-12-07T05:24:40;159371.50;;;2.94
71897;BMP280;59767;51.344;12.362;2022-12-07T05:27:44;159374.06;;;2.95
71897;BMP280;59767;51.344;12.362;2022-12-07T05:30:48;159375.41;;;2.95
71897;BMP280;59767;51.344;12.362;2022-12-07T05:33:52;159370.16;;;2.93
71897;BMP280;59767;51.344;12.362;2022-12-07T05:36:56;159389.72;;;3.01
71897;BMP280;59767;51.344;12.362;2022-12-07T05:40:00;159384.53;;;2.99
71897;BMP280;59767;51.344;12.362;2022-12-07T05:43:04;159408.00;;;3.08
71897;BMP280;59767;51.344;12.362;2022-12-07T05:46:09;159389.72;;;3.01
71897;BMP280;59767;51.344;12.362;2022-12-07T05:49:12;159396.25;;;3.03
71897;BMP280;59767;51.344;12.362;2022-12-07T05:52:17;159409.31;;;3.08
71897;BMP280;59767;51.344;12.362;2022-12-07T05:55:21;159415.81;;;3.11
71897;BMP280;59767;51.344;12.362;2022-12-07T05:58:25;159409.31;;;3.08
71897;BMP280;59767;51.344;12.362;2022-12-07T06:02:05;159396.25;;;3.03
71897;BMP280;59767;51.344;12.362;2022-12-07T06:05:09;159388.44;;;3.00
71897;BMP280;59767;51.344;12.362;2022-12-07T06:08:13;159408.00;;;3.08
71897;BMP280;59767;51.344;12.362;2022-12-07T06:11:18;159410.59;;;3.09
71897;BMP280;59767;51.344;12.362;2022-12-07T06:14:41;159439.22;;;3.20
71897;BMP280;59767;51.344;12.362;2022-12-07T06:17:47;159414.50;;;3.10
71897;BMP280;59767;51.344;12.362;2022-12-07T06:20:51;159417.13;;;3.11
71897;BMP280;59767;51.344;12.362;2022-12-07T06:23:54;159393.63;;;3.02
71897;BMP280;59767;51.344;12.362;2022-12-07T06:26:59;159381.91;;;2.98
71897;BMP280;59767;51.344;12.362;2022-12-07T06:30:04;159357.16;;;2.88
71897;BMP280;59767;51.344;12.362;2022-12-07T06:33:10;159364.94;;;2.91
71897;BMP280;59767;51.344;12.362;2022-12-07T06:36:14;159354.59;;;2.87
71897;BMP280;59767;51.344;12.362;2022-12-07T06:39:23;159351.94;;;2.86
71897;BMP280;59767;51.344;12.362;2022-12-07T06:42:28;159340.22;;;2.82
71897;BMP280;59767;51.344;12.362;2022-12-07T06:45:33;159318.09;;;2.73
71897;BMP280;59767;51.344;12.362;2022-12-07T06:48:37;159342.84;;;2.83
71897;BMP280;59767;51.344;12.362;2022-12-07T06:51:41;159341.53;;;2.82
71897;BMP280;59767;51.344;12.362;2022-12-07T06:54:45;159364.94;;;2.91
71897;BMP280;59767;51.344;12.362;2022-12-07T06:57:49;159388.44;;;3.00
71897;BMP280;59767;51.344;12.362;2022-12-07T07:00:53;159422.31;;;3.13
71897;BMP280;59767;51.344;12.362;2022-12-07T07:03:58;159431.44;;;3.17
71897;BMP280;59767;51.344;12.362;2022-12-07T07:07:02;159436.69;;;3.19
71897;BMP280;59767;51.344;12.362;2022-12-07T07:10:06;159445.78;;;3.22
71897;BMP280;59767;51.344;12.362;2022-12-07T07:13:10;159467.91;;;3.31
71897;BMP280;59767;51.344;12.362;2022-12-07T07:16:14;159495.34;;;3.41
71897;BMP280;59767;51.344;12.362;2022-12-07T07:19:19;159467.91;;;3.31
71897;BMP280;59767;51.344;12.362;2022-12-07T07:22:22;159473.16;;;3.33
71897;BMP280;59767;51.344;12.362;2022-12-07T07:25:27;159470.56;;;3.32
71897;BMP280;59767;51.344;12.362;2022-12-07T07:28:31;159467.91;;;3.31
71897;BMP280;59767;51.344;12.362;2022-12-07T07:31:35;159477.06;;;3.34
71897;BMP280;59767;51.344;12.362;2022-12-07T07:34:40;159467.91;;;3.31
71897;BMP280;59767;51.344;12.362;2022-12-07T07:37:44;159461.41;;;3.28
71897;BMP280;59767;51.344;12.362;2022-12-07T07:40:48;159482.28;;;3.36
71897;BMP280;59767;51.344;12.362;2022-12-07T07:43:53;159500.53;;;3.43
71897;BMP280;59767;51.344;12.362;2022-12-07T07:46:57;159510.94;;;3.47
71897;BMP280;59767;51.344;12.362;2022-12-07T07:50:01;159518.75;;;3.50
71897;BMP280;59767;51.344;12.362;2022-12-07T07:53:05;159520.06;;;3.51
71897;BMP280;59767;51.344;12.362;2022-12-07T07:56:10;159513.53;;;3.48
71897;BMP280;59767;51.344;12.362;2022-12-07T07:59:15;159520.06;;;3.51
71897;BMP280;59767;51.344;12.362;2022-12-07T08:02:21;159509.63;;;3.47
71897;BMP280;59767;51.344;12.362;2022-12-07T08:05:26;159520.06;;;3.51
71897;BMP280;59767;51.344;12.362;2022-12-07T08:08:30;159518.75;;;3.50
71897;BMP280;59767;51.344;12.362;2022-12-07T08:11:35;159508.34;;;3.46
71897;BMP280;59767;51.344;12.362;2022-12-07T08:14:40;159510.94;;;3.47
71897;BMP280;59767;51.344;12.362;2022-12-07T08:17:45;159487.53;;;3.38
71897;BMP280;59767;51.344;12.362;2022-12-07T08:20:49;159487.53;;;3.38
71897;BMP280;59767;51.344;12.362;2022-12-07T08:23:53;159479.66;;;3.35
71897;BMP280;59767;51.344;12.362;2022-12-07T08:26:57;159500.53;;;3.43
71897;BMP280;59767;51.344;12.362;2022-12-07T08:30:02;159526.56;;;3.53
71897;BMP280;59767;51.344;12.362;2022-12-07T08:33:06;159563.09;;;3.68
71897;BMP280;59767;51.344;12.362;2022-12-07T08:36:12;159615.28;;;3.88
71897;BMP280;59767;51.344;12.362;2022-12-07T08:39:15;159636.09;;;3.96
71897;BMP280;59767;51.344;12.362;2022-12-07T08:42:34;159677.81;;;4.12
71897;BMP280;59767;51.344;12.362;2022-12-07T08:45:43;159730.03;;;4.32
71897;BMP280;59767;51.344;12.362;2022-12-07T08:48:49;159752.19;;;4.40
71897;BMP280;59767;51.344;12.362;2022-12-07T08:51:54;159752.19;;;4.40
71897;BMP280;59767;51.344;12.362;2022-12-07T08:55:00;159735.19;;;4.34
71897;BMP280;59767;51.344;12.362;2022-12-07T08:58:04;159718.28;;;4.27
71897;BMP280;59767;51.344;12.362;2022-12-07T09:01:08;159711.72;;;4.25
71897;BMP280;59767;51.344;12.362;2022-12-07T09:04:13;159707.81;;;4.23
71897;BMP280;59767;51.344;12.362;2022-12-07T09:07:17;159709.13;;;4.24
71897;BMP280;59767;51.344;12.362;2022-12-07T09:10:21;159733.88;;;4.33
71897;BMP280;59767;51.344;12.362;2022-12-07T09:13:26;159758.69;;;4.43
71897;BMP280;59767;51.344;12.362;2022-12-07T09:16:30;159786.03;;;4.53
71897;BMP280;59767;51.344;12.362;2022-12-07T09:19:35;159800.41;;;4.59
71897;BMP280;59767;51.344;12.362;2022-12-07T09:22:39;159795.19;;;4.57
71897;BMP280;59767;51.344;12.362;2022-12-07T09:25:43;159771.75;;;4.48
71897;BMP280;59767;51.344;12.362;2022-12-07T09:28:47;159763.91;;;4.45
71897;BMP280;59767;51.344;12.362;2022-12-07T09:31:52;159777.00;;;4.50
71897;BMP280;59767;51.344;12.362;2022-12-07T09:34:55;159780.84;;;4.51
71897;BMP280;59767;51.344;12.362;2022-12-07T09:37:59;159773.06;;;4.48
71897;BMP280;59767;51.344;12.362;2022-12-07T09:41:07;159779.53;;;4.51
71897;BMP280;59767;51.344;12.362;2022-12-07T09:44:13;159779.53;;;4.51
71897;BMP280;59767;51.344;12.362;2022-12-07T09:47:19;159765.19;;;4.45
71897;BMP280;59767;51.344;12.362;2022-12-07T09:50:25;159769.09;;;4.47
71897;BMP280;59767;51.344;12.362;2022-12-07T09:53:34;159773.06;;;4.48
71897;BMP280;59767;51.344;12.362;2022-12-07T09:56:39;159777.00;;;4.50
71897;BMP280;59767;51.344;12.362;2022-12-07T09:59:43;159789.94;;;4.55
71897;BMP280;59767;51.344;12.362;2022-12-07T10:02:59;159800.41;;;4.59
71897;BMP280;59767;51.344;12.362;2022-12-07T10:06:04;159805.66;;;4.61
71897;BMP280;59767;51.344;12.362;2022-12-07T10:09:10;159817.41;;;4.65
71897;BMP280;59767;51.344;12.362;2022-12-07T10:12:14;159844.75;;;4.76
71897;BMP280;59767;51.344;12.362;2022-12-07T10:15:18;159839.50;;;4.74
71897;BMP280;59767;51.344;12.362;2022-12-07T10:18:33;159865.66;;;4.84
71897;BMP280;59767;51.344;12.362;2022-12-07T10:21:37;159900.88;;;4.97
71897;BMP280;59767;51.344;12.362;2022-12-07T10:24:42;159928.25;;;5.08
71897;BMP280;59767;51.344;12.362;2022-12-07T10:28:13;159959.56;;;5.20
71897;BMP280;59767;51.344;12.362;2022-12-07T10:31:21;159980.44;;;5.28
71897;BMP280;59767;51.344;12.362;2022-12-07T10:34:32;159993.50;;;5.33
71897;BMP280;59767;51.344;12.362;2022-12-07T10:37:45;159984.34;;;5.29
71897;BMP280;59767;51.344;12.362;2022-12-07T10:41:03;159985.66;;;5.30
71897;BMP280;59767;51.344;12.362;2022-12-07T10:44:21;159983.06;;;5.29
71897;BMP280;59767;51.344;12.362;2022-12-07T10:47:32;159984.34;;;5.29
71897;BMP280;59767;51.344;12.362;2022-12-07T10:50:47;159992.22;;;5.32
71897;BMP280;59767;51.344;12.362;2022-12-07T10:54:02;160013.03;;;5.40
71897;BMP280;59767;51.344;12.362;2022-12-07T11:00:46;160002.59;;;5.36
71897;BMP280;59767;51.344;12.362;2022-12-07T11:07:48;159986.97;;;5.30
71897;BMP280;59767;51.344;12.362;2022-12-07T11:11:07;159956.97;;;5.19
71897;BMP280;59767;51.344;12.362;2022-12-07T11:17:35;159833.00;;;4.71
71897;BMP280;59767;51.344;12.362;2022-12-07T11:20:53;159826.50;;;4.69
71897;BMP280;59767;51.344;12.362;2022-12-07T11:24:20;159834.31;;;4.72
71897;BMP280;59767;51.344;12.362;2022-12-07T11:27:41;159843.44;;;4.75
71897;BMP280;59767;51.344;12.362;2022-12-07T11:31:00;159831.69;;;4.71
71897;BMP280;59767;51.344;12.362;2022-12-07T11:37:51;159810.84;;;4.63
71897;BMP280;59767;51.344;12.362;2022-12-07T11:41:03;159833.00;;;4.71
71897;BMP280;59767;51.344;12.362;2022-12-07T11:44:30;159838.25;;;4.73
71897;BMP280;59767;51.344;12.362;2022-12-07T11:48:01;159855.22;;;4.80
71897;BMP280;59767;51.344;12.362;2022-12-07T11:51:07;159873.44;;;4.87
71897;BMP280;59767;51.344;12.362;2022-12-07T11:54:21;159906.06;;;4.99
71897;BMP280;59767;51.344;12.362;2022-12-07T11:57:42;159902.16;;;4.98
71897;BMP280;59767;51.344;12.362;2022-12-07T12:01:07;159912.63;;;5.02
71897;BMP280;59767;51.344;12.362;2022-12-07T12:07:53;159945.22;;;5.14
71897;BMP280;59767;51.344;12.362;2022-12-07T12:21:28;159980.44;;;5.28
71897;BMP280;59767;51.344;12.362;2022-12-07T12:24:33;160007.84;;;5.38
71897;BMP280;59767;51.344;12.362;2022-12-07T12:27:40;160007.84;;;5.38
71897;BMP280;59767;51.344;12.362;2022-12-07T12:30:44;160023.50;;;5.44
71897;BMP280;59767;51.344;12.362;2022-12-07T12:33:53;160039.19;;;5.50
71897;BMP280;59767;51.344;12.362;2022-12-07T12:36:58;160048.28;;;5.54
71897;BMP280;59767;51.344;12.362;2022-12-07T12:43:50;160070.53;;;5.62
71897;BMP280;59767;51.344;12.362;2022-12-07T12:47:58;160056.13;;;5.57
71897;BMP280;59767;51.344;12.362;2022-12-07T12:54:37;160009.13;;;5.39
71897;BMP280;59767;51.344;12.362;2022-12-07T12:57:41;160001.34;;;5.36
71897;BMP280;59767;51.344;12.362;2022-12-07T13:00:46;160017.00;;;5.42
71897;BMP280;59767;51.344;12.362;2022-12-07T13:03:55;160017.00;;;5.42
71897;BMP280;59767;51.344;12.362;2022-12-07T13:07:00;160014.34;;;5.41
71897;BMP280;59767;51.344;12.362;2022-12-07T13:10:04;160011.75;;;5.40
71897;BMP280;59767;51.344;12.362;2022-12-07T13:22:58;160061.34;;;5.59
71897;BMP280;59767;51.344;12.362;2022-12-07T13:26:14;160066.59;;;5.61
71897;BMP280;59767;51.344;12.362;2022-12-07T13:29:21;160078.34;;;5.65
71897;BMP280;59767;51.344;12.362;2022-12-07T13:32:27;160091.38;;;5.70
71897;BMP280;59767;51.344;12.362;2022-12-07T13:35:35;160078.34;;;5.65
71897;BMP280;59767;51.344;12.362;2022-12-07T13:38:49;160070.53;;;5.62
71897;BMP280;59767;51.344;12.362;2022-12-07T13:41:56;160060.03;;;5.58
71897;BMP280;59767;51.344;12.362;2022-12-07T13:45:21;160048.28;;;5.54
71897;BMP280;59767;51.344;12.362;2022-12-07T13:48:48;160048.28;;;5.54
71897;BMP280;59767;51.344;12.362;2022-12-07T13:51:53;160020.91;;;5.43
71897;BMP280;59767;51.344;12.362;2022-12-07T13:54:59;160017.00;;;5.42
71897;BMP280;59767;51.344;12.362;2022-12-07T13:58:05;160030.03;;;5.47
71897;BMP280;59767;51.344;12.362;2022-12-07T14:01:09;160037.84;;;5.50
71897;BMP280;59767;51.344;12.362;2022-12-07T14:04:18;160027.44;;;5.46
71897;BMP280;59767;51.344;12.362;2022-12-07T14:07:27;159998.75;;;5.35
71897;BMP280;59767;51.344;12.362;2022-12-07T14:10:41;159983.06;;;5.29
71897;BMP280;59767;51.344;12.362;2022-12-07T14:17:01;159932.16;;;5.09
71897;BMP280;59767;51.344;12.362;2022-12-07T14:20:29;159928.25;;;5.08
71897;BMP280;59767;51.344;12.362;2022-12-07T14:23:35;159934.75;;;5.10
71897;BMP280;59767;51.344;12.362;2022-12-07T14:26:39;159910.00;;;5.01
71897;BMP280;59767;51.344;12.362;2022-12-07T14:29:44;159910.00;;;5.01
71897;BMP280;59767;51.344;12.362;2022-12-07T14:32:52;159912.63;;;5.02
71897;BMP280;59767;51.344;12.362;2022-12-07T14:35:57;159900.88;;;4.97
71897;BMP280;59767;51.344;12.362;2022-12-07T14:39:02;159872.22;;;4.86
71897;BMP280;59767;51.344;12.362;2022-12-07T14:42:11;159876.06;;;4.88
71897;BMP280;59767;51.344;12.362;2022-12-07T14:45:18;159857.81;;;4.81
71897;BMP280;59767;51.344;12.362;2022-12-07T14:48:23;159829.09;;;4.70
71897;BMP280;59767;51.344;12.362;2022-12-07T14:51:47;159831.69;;;4.71
71897;BMP280;59767;51.344;12.362;2022-12-07T14:55:29;159830.41;;;4.70
71897;BMP280;59767;51.344;12.362;2022-12-07T14:58:33;159817.41;;;4.65
71897;BMP280;59767;51.344;12.362;2022-12-07T15:01:38;159816.06;;;4.65
71897;BMP280;59767;51.344;12.362;2022-12-07T15:04:42;159812.16;;;4.63
71897;BMP280;59767;51.344;12.362;2022-12-07T15:07:47;159800.41;;;4.59
71897;BMP280;59767;51.344;12.362;2022-12-07T15:10:52;159787.34;;;4.54
71897;BMP280;59767;51.344;12.362;2022-12-07T15:13:56;159777.00;;;4.50
71897;BMP280;59767;51.344;12.362;2022-12-07T15:17:12;159766.50;;;4.46
71897;BMP280;59767;51.344;12.362;2022-12-07T15:20:28;159777.00;;;4.50
71897;BMP280;59767;51.344;12.362;2022-12-07T15:23:35;159761.28;;;4.44
71897;BMP280;59767;51.344;12.362;2022-12-07T15:26:40;159754.78;;;4.41
71897;BMP280;59767;51.344;12.362;2022-12-07T15:29:44;159758.69;;;4.43
71897;BMP280;59767;51.344;12.362;2022-12-07T15:32:52;159758.69;;;4.43
71897;BMP280;59767;51.344;12.362;2022-12-07T15:35:58;159778.25;;;4.50
71897;BMP280;59767;51.344;12.362;2022-12-07T15:39:02;159775.66;;;4.49
71897;BMP280;59767;51.344;12.362;2022-12-07T15:42:21;159777.00;;;4.50
71897;BMP280;59767;51.344;12.362;2022-12-07T15:45:25;159769.09;;;4.47
71897;BMP280;59767;51.344;12.362;2022-12-07T15:48:30;159780.84;;;4.51
71897;BMP280;59767;51.344;12.362;2022-12-07T15:51:34;159783.44;;;4.52
71897;BMP280;59767;51.344;12.362;2022-12-07T15:54:38;159793.88;;;4.56
71897;BMP280;59767;51.344;12.362;2022-12-07T15:57:43;159805.66;;;4.61
71897;BMP280;59767;51.344;12.362;2022-12-07T16:00:48;159826.50;;;4.69
71897;BMP280;59767;51.344;12.362;2022-12-07T16:03:51;159823.91;;;4.68
71897;BMP280;59767;51.344;12.362;2022-12-07T16:06:56;159820.00;;;4.66
71897;BMP280;59767;51.344;12.362;2022-12-07T16:10:00;159829.09;;;4.70
71897;BMP280;59767;51.344;12.362;2022-12-07T16:13:04;159823.91;;;4.68
71897;BMP280;59767;51.344;12.362;2022-12-07T16:16:13;159746.94;;;4.38
71897;BMP280;59767;51.344;12.362;2022-12-07T16:19:17;159698.66;;;4.20
71897;BMP280;59767;51.344;12.362;2022-12-07T16:22:22;159692.16;;;4.17
71897;BMP280;59767;51.344;12.362;2022-12-07T16:25:26;159677.81;;;4.12
71897;BMP280;59767;51.344;12.362;2022-12-07T16:28:30;159659.59;;;4.05
71897;BMP280;59767;51.344;12.362;2022-12-07T16:31:35;159640.03;;;3.97
71897;BMP280;59767;51.344;12.362;2022-12-07T16:34:39;159617.88;;;3.89
71897;BMP280;59767;51.344;12.362;2022-12-07T16:37:43;159619.19;;;3.89
71897;BMP280;59767;51.344;12.362;2022-12-07T16:40:47;159599.56;;;3.82
71897;BMP280;59767;51.344;12.362;2022-12-07T16:43:51;159583.94;;;3.76
71897;BMP280;59767;51.344;12.362;2022-12-07T16:46:55;159582.66;;;3.75
71897;BMP280;59767;51.344;12.362;2022-12-07T16:50:00;159573.53;;;3.72
71897;BMP280;59767;51.344;12.362;2022-12-07T16:53:04;159577.44;;;3.73
71897;BMP280;59767;51.344;12.362;2022-12-07T16:56:11;159577.44;;;3.73
71897;BMP280;59767;51.344;12.362;2022-12-07T16:59:15;159589.16;;;3.78
71897;BMP280;59767;51.344;12.362;2022-12-07T17:02:19;159593.06;;;3.79
71897;BMP280;59767;51.344;12.362;2022-12-07T17:05:24;159610.03;;;3.86
71897;BMP280;59767;51.344;12.362;2022-12-07T17:08:28;159615.28;;;3.88
71897;BMP280;59767;51.344;12.362;2022-12-07T17:11:32;159625.63;;;3.92
71897;BMP280;59767;51.344;12.362;2022-12-07T17:14:36;159633.47;;;3.95
71897;BMP280;59767;51.344;12.362;2022-12-07T17:17:59;159633.47;;;3.95
71897;BMP280;59767;51.344;12.362;2022-12-07T17:21:06;159641.28;;;3.98
71897;BMP280;59767;51.344;12.362;2022-12-07T17:24:12;159653.06;;;4.02
71897;BMP280;59767;51.344;12.362;2022-12-07T17:27:16;159659.59;;;4.05
71897;BMP280;59767;51.344;12.362;2022-12-07T17:30:21;159659.59;;;4.05
71897;BMP280;59767;51.344;12.362;2022-12-07T17:33:25;159662.19;;;4.06
71897;BMP280;59767;51.344;12.362;2022-12-07T17:36:31;159662.19;;;4.06
71897;BMP280;59767;51.344;12.362;2022-12-07T17:39:35;159675.22;;;4.11
71897;BMP280;59767;51.344;12.362;2022-12-07T17:42:39;159690.84;;;4.17
71897;BMP280;59767;51.344;12.362;2022-12-07T17:45:43;159675.22;;;4.11
71897;BMP280;59767;51.344;12.362;2022-12-07T17:48:47;159680.41;;;4.13
71897;BMP280;59767;51.344;12.362;2022-12-07T17:51:51;159688.25;;;4.16
71897;BMP280;59767;51.344;12.362;2022-12-07T17:55:14;159690.84;;;4.17
71897;BMP280;59767;51.344;12.362;2022-12-07T17:58:18;159685.66;;;4.15
71897;BMP280;59767;51.344;12.362;2022-12-07T18:01:22;159677.81;;;4.12
71897;BMP280;59767;51.344;12.362;2022-12-07T18:04:28;159690.84;;;4.17
71897;BMP280;59767;51.344;12.362;2022-12-07T18:07:32;159686.91;;;4.15
71897;BMP280;59767;51.344;12.362;2022-12-07T18:10:36;159668.72;;;4.08
71897;BMP280;59767;51.344;12.362;2022-12-07T18:13:41;159659.59;;;4.05
71897;BMP280;59767;51.344;12.362;2022-12-07T18:16:45;159672.63;;;4.10
71897;BMP280;59767;51.344;12.362;2022-12-07T18:19:49;159677.81;;;4.12
71897;BMP280;59767;51.344;12.362;2022-12-07T18:22:54;159666.09;;;4.07
71897;BMP280;59767;51.344;12.362;2022-12-07T18:25:57;159653.06;;;4.02
71897;BMP280;59767;51.344;12.362;2022-12-07T18:29:03;159657.00;;;4.04
71897;BMP280;59767;51.344;12.362;2022-12-07T18:32:08;159642.59;;;3.98
71897;BMP280;59767;51.344;12.362;2022-12-07T18:35:13;159663.50;;;4.06
71897;BMP280;59767;51.344;12.362;2022-12-07T18:38:17;159646.53;;;4.00
71897;BMP280;59767;51.344;12.362;2022-12-07T18:41:21;159642.59;;;3.98
71897;BMP280;59767;51.344;12.362;2022-12-07T18:44:25;159645.22;;;3.99
71897;BMP280;59767;51.344;12.362;2022-12-07T18:47:29;159645.22;;;3.99